sensor_id;sensor_type;location;lat;lon;timestamp;temperature;humidity
23748;DHT22;12054;53.662;10.126;2022-08-19T00:02:06;21.70;99.90
23748;DHT22;12054;53.662;10.126;2022-08-19T00:04:34;21.80;99.90
23748;DHT22;12054;53.662;10.126;2022-08-19T00:07:03;21.70;99.90
23748;DHT22;12054;53.662;10.126;2022-08-19T00:09:28;21.70;99.90
23748;DHT22;12054;53.662;10.126;2022-08-19T00:11:55;21.70;99.90
23748;DHT22;12054;53.662;10.126;2022-08-19T00:14:22;21.70;99.90
23748;DHT22;12054;53.662;10.126;2022-08-19T00:16:48;21.60;99.90
23748;DHT22;12054;53.662;10.126;2022-08-19T00:19:15;21.70;99.90
23748;DHT22;12054;53.662;10.126;2022-08-19T00:21:41;21.70;99.90
23748;DHT22;12054;53.662;10.126;2022-08-19T00:24:08;21.60;99.90
23748;DHT22;12054;53.662;10.126;2022-08-19T00:26:34;21.60;99.90
23748;DHT22;12054;53.662;10.126;2022-08-19T00:29:01;21.60;99.90
23748;DHT22;12054;53.662;10.126;2022-08-19T00:31:27;21.60;99.90
23748;DHT22;12054;53.662;10.126;2022-08-19T00:33:53;21.60;99.90
23748;DHT22;12054;53.662;10.126;2022-08-19T00:36:19;21.60;99.90
23748;DHT22;12054;53.662;10.126;2022-08-19T00:38:45;21.60;99.90
23748;DHT22;12054;53.662;10.126;2022-08-19T00:41:14;21.60;99.90
23748;DHT22;12054;53.662;10.126;2022-08-19T00:43:40;21.60;99.90
23748;DHT22;12054;53.662;10.126;2022-08-19T00:46:06;21.50;99.90
23748;DHT22;12054;53.662;10.126;2022-08-19T00:48:33;21.50;99.90
23748;DHT22;12054;53.662;10.126;2022-08-19T00:50:59;21.50;99.90
23748;DHT22;12054;53.662;10.126;2022-08-19T00:53:29;21.50;99.90
23748;DHT22;12054;53.662;10.126;2022-08-19T00:55:58;21.50;99.90
23748;DHT22;12054;53.662;10.126;2022-08-19T00:58:29;21.50;99.90
23748;DHT22;12054;53.662;10.126;2022-08-19T01:00:55;21.50;99.90
23748;DHT22;12054;53.662;10.126;2022-08-19T01:03:22;21.50;99.90
23748;DHT22;12054;53.662;10.126;2022-08-19T01:05:49;21.50;99.90
23748;DHT22;12054;53.662;10.126;2022-08-19T01:08:18;21.50;99.90
23748;DHT22;12054;53.662;10.126;2022-08-19T01:10:53;21.50;99.90
23748;DHT22;12054;53.662;10.126;2022-08-19T01:13:23;21.50;99.90
23748;DHT22;12054;53.662;10.126;2022-08-19T01:16:00;21.50;99.90
23748;DHT22;12054;53.662;10.126;2022-08-19T01:18:27;21.50;99.90
23748;DHT22;12054;53.662;10.126;2022-08-19T01:20:54;21.50;99.90
23748;DHT22;12054;53.662;10.126;2022-08-19T01:23:22;21.40;99.90
23748;DHT22;12054;53.662;10.126;2022-08-19T01:26:17;21.40;99.90
23748;DHT22;12054;53.662;10.126;2022-08-19T01:28:45;21.40;99.90
23748;DHT22;12054;53.662;10.126;2022-08-19T01:31:15;21.40;99.90
23748;DHT22;12054;53.662;10.126;2022-08-19T01:33:41;21.40;99.90
23748;DHT22;12054;53.662;10.126;2022-08-19T01:36:10;21.40;99.90
23748;DHT22;12054;53.662;10.126;2022-08-19T01:38:39;21.40;99.90
23748;DHT22;12054;53.662;10.126;2022-08-19T01:41:05;21.40;99.90
23748;DHT22;12054;53.662;10.126;2022-08-19T01:43:32;21.40;99.90
23748;DHT22;12054;53.662;10.126;2022-08-19T01:45:57;21.40;99.90
23748;DHT22;12054;53.662;10.126;2022-08-19T01:48:23;21.40;99.90
23748;DHT22;12054;53.662;10.126;2022-08-19T01:50:49;21.30;99.90
23748;DHT22;12054;53.662;10.126;2022-08-19T01:53:15;21.40;99.90
23748;DHT22;12054;53.662;10.126;2022-08-19T01:55:42;21.40;99.90
23748;DHT22;12054;53.662;10.126;2022-08-19T01:58:17;21.40;99.90
23748;DHT22;12054;53.662;10.126;2022-08-19T02:00:44;21.30;99.90
23748;DHT22;12054;53.662;10.126;2022-08-19T02:03:11;21.30;99.90
23748;DHT22;12054;53.662;10.126;2022-08-19T02:05:37;21.30;99.90
23748;DHT22;12054;53.662;10.126;2022-08-19T02:08:03;21.30;99.90
23748;DHT22;12054;53.662;10.126;2022-08-19T02:10:29;21.30;99.90
23748;DHT22;12054;53.662;10.126;2022-08-19T02:12:55;21.30;99.90
23748;DHT22;12054;53.662;10.126;2022-08-19T02:15:20;21.30;99.90
23748;DHT22;12054;53.662;10.126;2022-08-19T02:17:47;21.30;99.90
23748;DHT22;12054;53.662;10.126;2022-08-19T02:20:13;21.30;99.90
23748;DHT22;12054;53.662;10.126;2022-08-19T02:22:40;21.30;99.90
23748;DHT22;12054;53.662;10.126;2022-08-19T02:25:11;21.30;99.90
23748;DHT22;12054;53.662;10.126;2022-08-19T02:27:38;21.30;99.90
23748;DHT22;12054;53.662;10.126;2022-08-19T02:30:04;21.30;99.90
23748;DHT22;12054;53.662;10.126;2022-08-19T02:32:30;21.30;99.90
23748;DHT22;12054;53.662;10.126;2022-08-19T02:34:57;21.30;99.90
23748;DHT22;12054;53.662;10.126;2022-08-19T02:37:24;21.20;99.90
23748;DHT22;12054;53.662;10.126;2022-08-19T02:40:09;21.20;99.90
23748;DHT22;12054;53.662;10.126;2022-08-19T02:42:35;21.20;99.90
23748;DHT22;12054;53.662;10.126;2022-08-19T02:45:00;21.20;99.90
23748;DHT22;12054;53.662;10.126;2022-08-19T02:47:26;21.20;99.90
23748;DHT22;12054;53.662;10.126;2022-08-19T02:49:51;21.20;99.90
23748;DHT22;12054;53.662;10.126;2022-08-19T02:52:17;21.20;99.90
23748;DHT22;12054;53.662;10.126;2022-08-19T02:54:43;21.20;99.90
23748;DHT22;12054;53.662;10.126;2022-08-19T02:57:09;21.20;99.90
23748;DHT22;12054;53.662;10.126;2022-08-19T02:59:34;21.20;99.90
23748;DHT22;12054;53.662;10.126;2022-08-19T03:02:00;21.20;99.90
23748;DHT22;12054;53.662;10.126;2022-08-19T03:04:26;21.20;99.90
23748;DHT22;12054;53.662;10.126;2022-08-19T03:06:51;21.20;99.90
23748;DHT22;12054;53.662;10.126;2022-08-19T03:09:19;21.20;99.90
23748;DHT22;12054;53.662;10.126;2022-08-19T03:11:45;21.20;99.90
23748;DHT22;12054;53.662;10.126;2022-08-19T03:14:11;21.10;99.90
23748;DHT22;12054;53.662;10.126;2022-08-19T03:16:47;21.10;99.90
23748;DHT22;12054;53.662;10.126;2022-08-19T03:19:15;21.10;99.90
23748;DHT22;12054;53.662;10.126;2022-08-19T03:21:42;21.10;99.90
23748;DHT22;12054;53.662;10.126;2022-08-19T03:24:10;21.10;99.90
23748;DHT22;12054;53.662;10.126;2022-08-19T03:26:42;21.10;99.90
23748;DHT22;12054;53.662;10.126;2022-08-19T03:29:08;21.10;99.90
23748;DHT22;12054;53.662;10.126;2022-08-19T03:31:36;21.10;99.90
23748;DHT22;12054;53.662;10.126;2022-08-19T03:34:02;21.10;99.90
23748;DHT22;12054;53.662;10.126;2022-08-19T03:36:27;21.10;99.90
23748;DHT22;12054;53.662;10.126;2022-08-19T03:38:56;21.10;99.90
23748;DHT22;12054;53.662;10.126;2022-08-19T03:41:25;21.10;99.90
23748;DHT22;12054;53.662;10.126;2022-08-19T03:43:52;21.10;99.90
23748;DHT22;12054;53.662;10.126;2022-08-19T03:46:27;21.10;99.90
23748;DHT22;12054;53.662;10.126;2022-08-19T03:48:55;21.10;99.90
23748;DHT22;12054;53.662;10.126;2022-08-19T03:51:25;21.10;99.90
23748;DHT22;12054;53.662;10.126;2022-08-19T03:53:51;21.10;99.90
23748;DHT22;12054;53.662;10.126;2022-08-19T03:56:17;21.10;99.90
23748;DHT22;12054;53.662;10.126;2022-08-19T03:58:44;21.10;99.90
23748;DHT22;12054;53.662;10.126;2022-08-19T04:01:12;21.10;99.90
23748;DHT22;12054;53.662;10.126;2022-08-19T04:03:38;21.00;99.90
23748;DHT22;12054;53.662;10.126;2022-08-19T04:06:11;21.00;99.90
23748;DHT22;12054;53.662;10.126;2022-08-19T04:08:39;21.00;99.90
23748;DHT22;12054;53.662;10.126;2022-08-19T04:11:13;21.00;99.90
23748;DHT22;12054;53.662;10.126;2022-08-19T04:13:39;21.00;99.90
23748;DHT22;12054;53.662;10.126;2022-08-19T04:16:07;21.00;99.90
23748;DHT22;12054;53.662;10.126;2022-08-19T04:18:34;21.00;99.90
23748;DHT22;12054;53.662;10.126;2022-08-19T04:20:59;21.00;99.90
23748;DHT22;12054;53.662;10.126;2022-08-19T04:23:26;21.00;99.90
23748;DHT22;12054;53.662;10.126;2022-08-19T04:25:54;21.00;99.90
23748;DHT22;12054;53.662;10.126;2022-08-19T04:28:20;21.00;99.90
23748;DHT22;12054;53.662;10.126;2022-08-19T04:30:49;21.00;99.90
23748;DHT22;12054;53.662;10.126;2022-08-19T04:33:17;21.00;99.90
23748;DHT22;12054;53.662;10.126;2022-08-19T04:35:45;21.00;99.90
23748;DHT22;12054;53.662;10.126;2022-08-19T04:38:12;21.10;99.90
23748;DHT22;12054;53.662;10.126;2022-08-19T04:40:43;21.00;99.90
23748;DHT22;12054;53.662;10.126;2022-08-19T04:43:27;21.00;99.90
23748;DHT22;12054;53.662;10.126;2022-08-19T04:45:53;20.90;99.90
23748;DHT22;12054;53.662;10.126;2022-08-19T04:48:19;20.90;99.90
23748;DHT22;12054;53.662;10.126;2022-08-19T04:50:52;21.00;99.90
23748;DHT22;12054;53.662;10.126;2022-08-19T04:53:26;21.00;99.90
23748;DHT22;12054;53.662;10.126;2022-08-19T04:55:54;21.00;99.90
23748;DHT22;12054;53.662;10.126;2022-08-19T04:58:21;21.00;99.90
23748;DHT22;12054;53.662;10.126;2022-08-19T05:00:46;20.90;99.90
23748;DHT22;12054;53.662;10.126;2022-08-19T05:03:12;20.90;99.90
23748;DHT22;12054;53.662;10.126;2022-08-19T05:05:40;20.90;99.90
23748;DHT22;12054;53.662;10.126;2022-08-19T05:08:06;20.90;99.90
23748;DHT22;12054;53.662;10.126;2022-08-19T05:10:38;20.90;99.90
23748;DHT22;12054;53.662;10.126;2022-08-19T05:13:04;20.90;99.90
23748;DHT22;12054;53.662;10.126;2022-08-19T05:15:30;20.90;99.90
23748;DHT22;12054;53.662;10.126;2022-08-19T05:17:56;20.90;99.90
23748;DHT22;12054;53.662;10.126;2022-08-19T05:20:40;20.90;99.90
23748;DHT22;12054;53.662;10.126;2022-08-19T05:23:25;20.90;99.90
23748;DHT22;12054;53.662;10.126;2022-08-19T05:25:51;20.90;99.90
23748;DHT22;12054;53.662;10.126;2022-08-19T05:28:18;20.90;99.90
23748;DHT22;12054;53.662;10.126;2022-08-19T05:30:47;20.90;99.90
23748;DHT22;12054;53.662;10.126;2022-08-19T05:33:15;20.90;99.90
23748;DHT22;12054;53.662;10.126;2022-08-19T05:35:41;20.90;99.90
23748;DHT22;12054;53.662;10.126;2022-08-19T05:38:07;20.90;99.90
23748;DHT22;12054;53.662;10.126;2022-08-19T05:40:35;20.90;99.90
23748;DHT22;12054;53.662;10.126;2022-08-19T05:43:02;20.90;99.90
23748;DHT22;12054;53.662;10.126;2022-08-19T05:45:28;20.90;99.90
23748;DHT22;12054;53.662;10.126;2022-08-19T05:47:54;20.90;99.90
23748;DHT22;12054;53.662;10.126;2022-08-19T05:50:20;20.90;99.90
23748;DHT22;12054;53.662;10.126;2022-08-19T05:52:45;20.90;99.90
23748;DHT22;12054;53.662;10.126;2022-08-19T05:55:11;20.90;99.90
23748;DHT22;12054;53.662;10.126;2022-08-19T05:57:38;20.90;99.90
23748;DHT22;12054;53.662;10.126;2022-08-19T06:00:05;20.90;99.90
23748;DHT22;12054;53.662;10.126;2022-08-19T06:02:35;20.90;99.90
23748;DHT22;12054;53.662;10.126;2022-08-19T06:05:01;20.90;99.90
23748;DHT22;12054;53.662;10.126;2022-08-19T06:07:28;20.90;99.90
23748;DHT22;12054;53.662;10.126;2022-08-19T06:09:55;20.90;99.90
23748;DHT22;12054;53.662;10.126;2022-08-19T06:12:20;20.90;99.90
23748;DHT22;12054;53.662;10.126;2022-08-19T06:14:56;20.90;99.90
23748;DHT22;12054;53.662;10.126;2022-08-19T06:17:21;20.80;99.90
23748;DHT22;12054;53.662;10.126;2022-08-19T06:19:50;20.90;99.90
23748;DHT22;12054;53.662;10.126;2022-08-19T06:22:15;20.90;99.90
23748;DHT22;12054;53.662;10.126;2022-08-19T06:24:41;20.90;99.90
23748;DHT22;12054;53.662;10.126;2022-08-19T06:27:07;20.90;99.90
23748;DHT22;12054;53.662;10.126;2022-08-19T06:29:33;20.90;99.90
23748;DHT22;12054;53.662;10.126;2022-08-19T06:32:00;20.90;99.90
23748;DHT22;12054;53.662;10.126;2022-08-19T06:34:27;20.90;99.90
23748;DHT22;12054;53.662;10.126;2022-08-19T06:36:54;20.90;99.90
23748;DHT22;12054;53.662;10.126;2022-08-19T06:39:26;20.90;99.90
23748;DHT22;12054;53.662;10.126;2022-08-19T06:41:55;20.90;99.90
23748;DHT22;12054;53.662;10.126;2022-08-19T06:44:23;20.90;99.90
23748;DHT22;12054;53.662;10.126;2022-08-19T06:46:50;20.80;99.90
23748;DHT22;12054;53.662;10.126;2022-08-19T06:49:16;20.90;99.90
23748;DHT22;12054;53.662;10.126;2022-08-19T06:51:47;20.90;99.90
23748;DHT22;12054;53.662;10.126;2022-08-19T06:54:14;20.90;99.90
23748;DHT22;12054;53.662;10.126;2022-08-19T06:56:39;20.90;99.90
23748;DHT22;12054;53.662;10.126;2022-08-19T06:59:13;20.90;99.90
23748;DHT22;12054;53.662;10.126;2022-08-19T07:01:44;20.90;99.90
23748;DHT22;12054;53.662;10.126;2022-08-19T07:04:13;20.90;99.90
23748;DHT22;12054;53.662;10.126;2022-08-19T07:06:39;20.90;99.90
23748;DHT22;12054;53.662;10.126;2022-08-19T07:09:06;20.90;99.90
23748;DHT22;12054;53.662;10.126;2022-08-19T07:11:31;20.90;99.90
23748;DHT22;12054;53.662;10.126;2022-08-19T07:13:58;20.90;99.90
23748;DHT22;12054;53.662;10.126;2022-08-19T07:16:24;20.90;99.90
23748;DHT22;12054;53.662;10.126;2022-08-19T07:18:50;20.90;99.90
23748;DHT22;12054;53.662;10.126;2022-08-19T07:21:22;20.90;99.90
23748;DHT22;12054;53.662;10.126;2022-08-19T07:23:50;20.90;99.90
23748;DHT22;12054;53.662;10.126;2022-08-19T07:26:18;20.90;99.90
23748;DHT22;12054;53.662;10.126;2022-08-19T07:28:46;20.90;99.90
23748;DHT22;12054;53.662;10.126;2022-08-19T07:31:13;20.90;99.90
23748;DHT22;12054;53.662;10.126;2022-08-19T07:33:40;21.00;99.90
23748;DHT22;12054;53.662;10.126;2022-08-19T07:36:10;21.00;99.90
23748;DHT22;12054;53.662;10.126;2022-08-19T07:38:41;21.00;99.90
23748;DHT22;12054;53.662;10.126;2022-08-19T07:41:13;21.00;99.90
23748;DHT22;12054;53.662;10.126;2022-08-19T07:43:40;21.00;99.90
23748;DHT22;12054;53.662;10.126;2022-08-19T07:46:06;21.00;99.90
23748;DHT22;12054;53.662;10.126;2022-08-19T07:48:32;21.00;99.90
23748;DHT22;12054;53.662;10.126;2022-08-19T07:51:03;21.00;99.90
23748;DHT22;12054;53.662;10.126;2022-08-19T07:53:31;21.00;99.90
23748;DHT22;12054;53.662;10.126;2022-08-19T07:55:58;21.00;99.90
23748;DHT22;12054;53.662;10.126;2022-08-19T07:58:36;21.00;99.90
23748;DHT22;12054;53.662;10.126;2022-08-19T08:01:04;21.00;99.90
23748;DHT22;12054;53.662;10.126;2022-08-19T08:03:30;21.00;99.90
23748;DHT22;12054;53.662;10.126;2022-08-19T08:06:15;21.00;99.90
23748;DHT22;12054;53.662;10.126;2022-08-19T08:09:00;21.00;99.90
23748;DHT22;12054;53.662;10.126;2022-08-19T08:11:55;21.10;99.90
23748;DHT22;12054;53.662;10.126;2022-08-19T08:14:44;21.10;99.90
23748;DHT22;12054;53.662;10.126;2022-08-19T08:17:11;21.10;99.90
23748;DHT22;12054;53.662;10.126;2022-08-19T08:19:38;21.10;99.90
23748;DHT22;12054;53.662;10.126;2022-08-19T08:22:06;21.10;99.90
23748;DHT22;12054;53.662;10.126;2022-08-19T08:24:32;21.10;99.90
23748;DHT22;12054;53.662;10.126;2022-08-19T08:27:00;21.10;99.90
23748;DHT22;12054;53.662;10.126;2022-08-19T08:29:28;21.10;99.90
23748;DHT22;12054;53.662;10.126;2022-08-19T08:31:54;21.10;99.90
23748;DHT22;12054;53.662;10.126;2022-08-19T08:34:20;21.20;99.90
23748;DHT22;12054;53.662;10.126;2022-08-19T08:36:46;21.20;99.90
23748;DHT22;12054;53.662;10.126;2022-08-19T08:39:15;21.10;99.90
23748;DHT22;12054;53.662;10.126;2022-08-19T08:41:51;21.10;99.90
23748;DHT22;12054;53.662;10.126;2022-08-19T08:44:39;21.20;99.90
23748;DHT22;12054;53.662;10.126;2022-08-19T08:47:13;21.20;99.90
23748;DHT22;12054;53.662;10.126;2022-08-19T08:49:49;21.20;99.90
23748;DHT22;12054;53.662;10.126;2022-08-19T08:52:26;21.20;99.90
23748;DHT22;12054;53.662;10.126;2022-08-19T08:54:57;21.20;99.90
23748;DHT22;12054;53.662;10.126;2022-08-19T08:57:32;21.20;99.90
23748;DHT22;12054;53.662;10.126;2022-08-19T09:00:04;21.20;99.90
23748;DHT22;12054;53.662;10.126;2022-08-19T09:02:31;21.20;99.90
23748;DHT22;12054;53.662;10.126;2022-08-19T09:04:57;21.20;99.90
23748;DHT22;12054;53.662;10.126;2022-08-19T09:10:04;21.30;99.90
23748;DHT22;12054;53.662;10.126;2022-08-19T09:12:39;21.30;99.90
23748;DHT22;12054;53.662;10.126;2022-08-19T09:15:12;21.30;99.90
23748;DHT22;12054;53.662;10.126;2022-08-19T09:17:38;21.30;99.90
23748;DHT22;12054;53.662;10.126;2022-08-19T09:20:08;21.30;99.90
23748;DHT22;12054;53.662;10.126;2022-08-19T09:22:41;21.30;99.90
23748;DHT22;12054;53.662;10.126;2022-08-19T09:25:10;21.30;99.90
23748;DHT22;12054;53.662;10.126;2022-08-19T09:27:38;21.40;99.90
23748;DHT22;12054;53.662;10.126;2022-08-19T09:30:05;21.40;99.90
23748;DHT22;12054;53.662;10.126;2022-08-19T09:32:32;21.40;99.90
23748;DHT22;12054;53.662;10.126;2022-08-19T09:34:58;21.40;99.90
23748;DHT22;12054;53.662;10.126;2022-08-19T09:37:27;21.40;99.90
23748;DHT22;12054;53.662;10.126;2022-08-19T09:39:52;21.40;99.90
23748;DHT22;12054;53.662;10.126;2022-08-19T09:42:19;21.40;99.90
23748;DHT22;12054;53.662;10.126;2022-08-19T09:44:45;21.40;99.90
23748;DHT22;12054;53.662;10.126;2022-08-19T09:47:13;21.50;99.90
23748;DHT22;12054;53.662;10.126;2022-08-19T09:49:39;21.50;99.90
23748;DHT22;12054;53.662;10.126;2022-08-19T09:52:07;21.50;99.90
23748;DHT22;12054;53.662;10.126;2022-08-19T09:54:33;21.50;99.90
23748;DHT22;12054;53.662;10.126;2022-08-19T09:56:59;21.50;99.90
23748;DHT22;12054;53.662;10.126;2022-08-19T09:59:26;21.50;99.90
23748;DHT22;12054;53.662;10.126;2022-08-19T10:01:52;21.50;99.90
23748;DHT22;12054;53.662;10.126;2022-08-19T10:04:17;21.50;99.90
23748;DHT22;12054;53.662;10.126;2022-08-19T10:06:43;21.50;99.90
23748;DHT22;12054;53.662;10.126;2022-08-19T10:09:10;21.60;99.90
23748;DHT22;12054;53.662;10.126;2022-08-19T10:11:38;21.60;99.90
23748;DHT22;12054;53.662;10.126;2022-08-19T10:14:04;21.60;99.90
23748;DHT22;12054;53.662;10.126;2022-08-19T10:16:33;21.70;99.90
23748;DHT22;12054;53.662;10.126;2022-08-19T10:19:00;21.70;99.90
23748;DHT22;12054;53.662;10.126;2022-08-19T10:21:29;21.80;99.90
23748;DHT22;12054;53.662;10.126;2022-08-19T10:24:00;21.80;99.90
23748;DHT22;12054;53.662;10.126;2022-08-19T10:26:31;21.80;99.90
23748;DHT22;12054;53.662;10.126;2022-08-19T10:28:57;21.90;99.90
23748;DHT22;12054;53.662;10.126;2022-08-19T10:31:31;22.00;99.90
23748;DHT22;12054;53.662;10.126;2022-08-19T10:33:57;22.00;99.90
23748;DHT22;12054;53.662;10.126;2022-08-19T10:36:26;22.10;99.90
23748;DHT22;12054;53.662;10.126;2022-08-19T10:38:54;22.20;99.90
23748;DHT22;12054;53.662;10.126;2022-08-19T10:41:23;22.20;99.90
23748;DHT22;12054;53.662;10.126;2022-08-19T10:43:57;22.30;99.90
23748;DHT22;12054;53.662;10.126;2022-08-19T10:46:32;22.30;99.90
23748;DHT22;12054;53.662;10.126;2022-08-19T10:48:59;22.30;99.90
23748;DHT22;12054;53.662;10.126;2022-08-19T10:51:25;22.30;99.90
23748;DHT22;12054;53.662;10.126;2022-08-19T10:54:09;22.40;99.90
23748;DHT22;12054;53.662;10.126;2022-08-19T10:56:35;22.40;99.90
23748;DHT22;12054;53.662;10.126;2022-08-19T10:59:21;22.50;99.90
23748;DHT22;12054;53.662;10.126;2022-08-19T11:01:49;22.50;99.90
23748;DHT22;12054;53.662;10.126;2022-08-19T11:04:16;22.50;99.90
23748;DHT22;12054;53.662;10.126;2022-08-19T11:06:46;22.60;99.90
23748;DHT22;12054;53.662;10.126;2022-08-19T11:09:17;22.60;99.90
23748;DHT22;12054;53.662;10.126;2022-08-19T11:11:43;22.60;99.90
23748;DHT22;12054;53.662;10.126;2022-08-19T11:14:12;22.60;99.90
23748;DHT22;12054;53.662;10.126;2022-08-19T11:16:39;22.60;99.90
23748;DHT22;12054;53.662;10.126;2022-08-19T11:19:06;22.60;99.90
23748;DHT22;12054;53.662;10.126;2022-08-19T11:21:39;22.70;99.90
23748;DHT22;12054;53.662;10.126;2022-08-19T11:24:11;22.70;99.90
23748;DHT22;12054;53.662;10.126;2022-08-19T11:26:38;22.70;99.90
23748;DHT22;12054;53.662;10.126;2022-08-19T11:29:06;22.70;99.90
23748;DHT22;12054;53.662;10.126;2022-08-19T11:31:37;22.70;99.90
23748;DHT22;12054;53.662;10.126;2022-08-19T11:34:06;22.70;99.90
23748;DHT22;12054;53.662;10.126;2022-08-19T11:36:33;22.70;99.90
23748;DHT22;12054;53.662;10.126;2022-08-19T11:38:58;22.80;99.90
23748;DHT22;12054;53.662;10.126;2022-08-19T11:41:25;22.70;99.90
23748;DHT22;12054;53.662;10.126;2022-08-19T11:43:52;22.70;99.90
23748;DHT22;12054;53.662;10.126;2022-08-19T11:46:19;22.80;99.90
23748;DHT22;12054;53.662;10.126;2022-08-19T11:48:45;22.80;99.90
23748;DHT22;12054;53.662;10.126;2022-08-19T11:51:14;22.80;99.90
23748;DHT22;12054;53.662;10.126;2022-08-19T11:53:40;22.90;99.90
23748;DHT22;12054;53.662;10.126;2022-08-19T11:56:07;22.90;99.90
23748;DHT22;12054;53.662;10.126;2022-08-19T11:58:33;22.90;99.90
23748;DHT22;12054;53.662;10.126;2022-08-19T12:00:59;23.00;99.90
23748;DHT22;12054;53.662;10.126;2022-08-19T12:03:25;23.00;99.90
23748;DHT22;12054;53.662;10.126;2022-08-19T12:05:51;23.00;99.90
23748;DHT22;12054;53.662;10.126;2022-08-19T12:08:17;23.00;99.90
23748;DHT22;12054;53.662;10.126;2022-08-19T12:10:44;23.10;99.90
23748;DHT22;12054;53.662;10.126;2022-08-19T12:13:11;23.10;99.90
23748;DHT22;12054;53.662;10.126;2022-08-19T12:15:40;23.10;99.90
23748;DHT22;12054;53.662;10.126;2022-08-19T12:18:06;23.10;99.90
23748;DHT22;12054;53.662;10.126;2022-08-19T12:20:35;23.10;99.90
23748;DHT22;12054;53.662;10.126;2022-08-19T12:23:01;23.10;99.90
23748;DHT22;12054;53.662;10.126;2022-08-19T12:25:27;23.20;99.90
23748;DHT22;12054;53.662;10.126;2022-08-19T12:27:52;23.20;99.90
23748;DHT22;12054;53.662;10.126;2022-08-19T12:30:18;23.20;99.90
23748;DHT22;12054;53.662;10.126;2022-08-19T12:32:43;23.20;99.90
23748;DHT22;12054;53.662;10.126;2022-08-19T12:35:09;23.20;99.90
23748;DHT22;12054;53.662;10.126;2022-08-19T12:37:36;23.20;99.90
23748;DHT22;12054;53.662;10.126;2022-08-19T12:40:02;23.20;99.90
23748;DHT22;12054;53.662;10.126;2022-08-19T12:42:28;23.30;99.90
23748;DHT22;12054;53.662;10.126;2022-08-19T12:44:54;23.30;99.90
23748;DHT22;12054;53.662;10.126;2022-08-19T12:47:20;23.30;99.90
23748;DHT22;12054;53.662;10.126;2022-08-19T12:49:46;23.30;99.90
23748;DHT22;12054;53.662;10.126;2022-08-19T12:52:12;23.30;99.90
23748;DHT22;12054;53.662;10.126;2022-08-19T12:54:41;23.30;99.90
23748;DHT22;12054;53.662;10.126;2022-08-19T12:57:09;23.30;99.90
23748;DHT22;12054;53.662;10.126;2022-08-19T12:59:36;23.40;99.90
23748;DHT22;12054;53.662;10.126;2022-08-19T13:02:03;23.40;99.90
23748;DHT22;12054;53.662;10.126;2022-08-19T13:04:30;23.50;99.90
23748;DHT22;12054;53.662;10.126;2022-08-19T13:06:56;23.40;99.90
23748;DHT22;12054;53.662;10.126;2022-08-19T13:09:22;23.50;99.90
23748;DHT22;12054;53.662;10.126;2022-08-19T13:11:48;23.50;99.90
23748;DHT22;12054;53.662;10.126;2022-08-19T13:14:13;23.50;99.90
23748;DHT22;12054;53.662;10.126;2022-08-19T13:16:39;23.60;99.90
23748;DHT22;12054;53.662;10.126;2022-08-19T13:19:05;23.60;99.90
23748;DHT22;12054;53.662;10.126;2022-08-19T13:21:32;23.60;99.90
23748;DHT22;12054;53.662;10.126;2022-08-19T13:24:00;23.60;99.90
23748;DHT22;12054;53.662;10.126;2022-08-19T13:26:26;23.70;99.90
23748;DHT22;12054;53.662;10.126;2022-08-19T13:28:51;23.80;99.90
23748;DHT22;12054;53.662;10.126;2022-08-19T13:31:38;23.80;99.90
23748;DHT22;12054;53.662;10.126;2022-08-19T13:34:32;23.90;99.90
23748;DHT22;12054;53.662;10.126;2022-08-19T13:36:59;23.90;99.90
23748;DHT22;12054;53.662;10.126;2022-08-19T13:39:25;23.90;99.90
23748;DHT22;12054;53.662;10.126;2022-08-19T13:41:51;24.00;99.90
23748;DHT22;12054;53.662;10.126;2022-08-19T13:44:17;24.00;99.90
23748;DHT22;12054;53.662;10.126;2022-08-19T13:46:48;24.10;99.90
23748;DHT22;12054;53.662;10.126;2022-08-19T13:49:19;24.10;99.90
23748;DHT22;12054;53.662;10.126;2022-08-19T13:51:45;24.20;99.90
23748;DHT22;12054;53.662;10.126;2022-08-19T13:54:11;24.30;99.90
23748;DHT22;12054;53.662;10.126;2022-08-19T13:56:42;24.30;99.90
23748;DHT22;12054;53.662;10.126;2022-08-19T13:59:08;24.50;99.90
23748;DHT22;12054;53.662;10.126;2022-08-19T14:01:34;24.50;99.90
23748;DHT22;12054;53.662;10.126;2022-08-19T14:04:00;24.60;99.90
23748;DHT22;12054;53.662;10.126;2022-08-19T14:06:25;24.60;99.90
23748;DHT22;12054;53.662;10.126;2022-08-19T14:08:51;24.60;99.90
23748;DHT22;12054;53.662;10.126;2022-08-19T14:11:18;24.70;99.90
23748;DHT22;12054;53.662;10.126;2022-08-19T14:13:43;24.70;99.90
23748;DHT22;12054;53.662;10.126;2022-08-19T14:16:11;24.70;99.90
23748;DHT22;12054;53.662;10.126;2022-08-19T14:18:37;24.70;99.90
23748;DHT22;12054;53.662;10.126;2022-08-19T14:21:06;24.70;99.90
23748;DHT22;12054;53.662;10.126;2022-08-19T14:23:32;24.80;99.90
23748;DHT22;12054;53.662;10.126;2022-08-19T14:26:14;24.70;99.90
23748;DHT22;12054;53.662;10.126;2022-08-19T14:28:40;24.80;99.90
23748;DHT22;12054;53.662;10.126;2022-08-19T14:31:08;24.80;99.90
23748;DHT22;12054;53.662;10.126;2022-08-19T14:33:33;24.80;99.90
23748;DHT22;12054;53.662;10.126;2022-08-19T14:35:59;24.90;99.90
23748;DHT22;12054;53.662;10.126;2022-08-19T14:38:26;24.90;99.90
23748;DHT22;12054;53.662;10.126;2022-08-19T14:40:51;24.90;99.90
23748;DHT22;12054;53.662;10.126;2022-08-19T14:43:17;24.90;99.90
23748;DHT22;12054;53.662;10.126;2022-08-19T14:45:43;24.90;99.90
23748;DHT22;12054;53.662;10.126;2022-08-19T14:48:09;24.90;99.90
23748;DHT22;12054;53.662;10.126;2022-08-19T14:50:35;24.90;99.90
23748;DHT22;12054;53.662;10.126;2022-08-19T14:53:07;24.90;99.80
23748;DHT22;12054;53.662;10.126;2022-08-19T14:55:33;24.90;99.70
23748;DHT22;12054;53.662;10.126;2022-08-19T14:57:59;24.90;99.60
23748;DHT22;12054;53.662;10.126;2022-08-19T15:00:25;24.90;99.60
23748;DHT22;12054;53.662;10.126;2022-08-19T15:02:51;24.80;99.60
23748;DHT22;12054;53.662;10.126;2022-08-19T15:05:16;24.80;99.50
23748;DHT22;12054;53.662;10.126;2022-08-19T15:07:42;24.90;99.60
23748;DHT22;12054;53.662;10.126;2022-08-19T15:10:10;24.80;99.60
23748;DHT22;12054;53.662;10.126;2022-08-19T15:12:36;24.90;99.60
23748;DHT22;12054;53.662;10.126;2022-08-19T15:15:06;24.90;99.60
23748;DHT22;12054;53.662;10.126;2022-08-19T15:17:32;24.90;99.60
23748;DHT22;12054;53.662;10.126;2022-08-19T15:19:57;24.90;99.60
23748;DHT22;12054;53.662;10.126;2022-08-19T15:22:23;24.90;99.50
23748;DHT22;12054;53.662;10.126;2022-08-19T15:24:48;24.90;99.40